createdAt,value
2023-04-29T00:00:21.266Z,21.10
2023-04-29T00:03:09.451Z,19.10
2023-04-29T00:05:37.610Z,17.60
2023-04-29T00:08:05.743Z,16.70
2023-04-29T00:10:33.630Z,17.50
2023-04-29T00:13:01.314Z,16.10
2023-04-29T00:15:29.035Z,15.80
2023-04-29T00:17:56.901Z,23.80
2023-04-29T00:20:24.739Z,18.40
2023-04-29T00:22:52.732Z,15.50
2023-04-29T00:25:20.755Z,14.30
2023-04-29T00:27:48.570Z,15.70
2023-04-29T00:30:16.695Z,14.20
2023-04-29T00:32:53.689Z,14.60
2023-04-29T00:35:21.822Z,22.40
2023-04-29T00:37:49.650Z,15.00
2023-04-29T00:40:17.595Z,19.00
2023-04-29T00:42:55.150Z,17.60
2023-04-29T00:45:23.153Z,17.00
2023-04-29T00:47:51.581Z,15.50
2023-04-29T00:50:19.614Z,18.00
2023-04-29T00:52:48.178Z,15.80
2023-04-29T00:55:16.331Z,13.70
2023-04-29T00:57:44.221Z,14.90
2023-04-29T01:00:12.339Z,14.80
2023-04-29T01:02:40.792Z,16.10
2023-04-29T01:05:11.208Z,15.80
2023-04-29T01:07:57.745Z,13.70
2023-04-29T01:10:28.653Z,21.00
2023-04-29T01:13:18.095Z,15.20
2023-04-29T01:15:45.858Z,14.60
2023-04-29T01:18:21.081Z,18.60
2023-04-29T01:20:48.893Z,14.20
2023-04-29T01:23:16.706Z,13.60
2023-04-29T01:25:45.260Z,18.00
2023-04-29T01:28:31.198Z,19.10
2023-04-29T01:31:09.131Z,16.90
2023-04-29T01:33:40.196Z,15.90
2023-04-29T01:36:23.691Z,17.00
2023-04-29T01:38:58.266Z,20.80
2023-04-29T01:41:34.955Z,22.30
2023-04-29T01:44:04.376Z,25.60
2023-04-29T01:46:32.397Z,25.00
2023-04-29T01:49:00.509Z,22.70
2023-04-29T01:51:29.906Z,24.40
2023-04-29T01:53:57.775Z,24.80
2023-04-29T01:56:25.565Z,31.80
2023-04-29T01:58:53.347Z,28.60
2023-04-29T02:01:21.213Z,24.90
2023-04-29T02:03:49.443Z,28.50
2023-04-29T02:06:17.276Z,25.00
2023-04-29T02:08:45.012Z,25.20
2023-04-29T02:11:12.711Z,26.40
2023-04-29T02:13:40.847Z,27.00
2023-04-29T02:16:09.818Z,27.60
2023-04-29T02:18:37.723Z,32.70
2023-04-29T02:21:05.631Z,30.70
2023-04-29T02:23:33.973Z,25.10
2023-04-29T02:26:02.093Z,22.80
2023-04-29T02:28:29.795Z,26.10
2023-04-29T02:30:57.903Z,30.90
2023-04-29T02:33:25.878Z,25.00
2023-04-29T02:35:53.705Z,26.80
2023-04-29T02:38:24.522Z,26.40
2023-04-29T02:41:12.509Z,27.60
2023-04-29T02:43:44.664Z,27.80
2023-04-29T02:46:12.651Z,27.60
2023-04-29T02:48:43.601Z,35.70
2023-04-29T02:51:14.575Z,26.40
2023-04-29T02:53:42.299Z,28.80
2023-04-29T02:56:10.065Z,22.00
2023-04-29T02:58:37.865Z,23.30
2023-04-29T03:01:05.681Z,23.30
2023-04-29T03:03:33.623Z,22.20
2023-04-29T03:06:01.778Z,19.80
2023-04-29T03:08:34.595Z,18.40
2023-04-29T03:11:02.600Z,17.90
2023-04-29T03:13:32.691Z,17.40
2023-04-29T03:16:01.855Z,20.10
2023-04-29T03:18:29.656Z,20.40
2023-04-29T03:21:00.028Z,17.50
2023-04-29T03:23:30.896Z,19.60
2023-04-29T03:25:58.812Z,20.40
2023-04-29T03:28:27.316Z,16.30
2023-04-29T03:30:56.835Z,19.00
2023-04-29T03:33:24.803Z,20.60
2023-04-29T03:35:52.591Z,19.90
2023-04-29T03:38:20.450Z,20.30
2023-04-29T03:40:48.255Z,22.30
2023-04-29T03:43:16.165Z,18.00
2023-04-29T03:45:44.041Z,18.80
2023-04-29T03:48:12.659Z,17.70
2023-04-29T03:50:40.396Z,20.30
2023-04-29T03:53:08.437Z,21.00
2023-04-29T03:55:36.336Z,17.30
2023-04-29T03:58:04.230Z,19.90
2023-04-29T04:00:32.504Z,17.20
2023-04-29T04:03:02.714Z,19.50
2023-04-29T04:05:32.286Z,17.70
2023-04-29T04:08:03.156Z,18.20
2023-04-29T04:10:31.059Z,17.50
2023-04-29T04:12:58.768Z,15.10
2023-04-29T04:15:26.791Z,15.80
2023-04-29T04:17:54.550Z,17.80
2023-04-29T04:20:22.481Z,17.60
2023-04-29T04:22:50.437Z,18.80
2023-04-29T04:25:21.089Z,15.50
2023-04-29T04:27:48.975Z,16.80
2023-04-29T04:30:16.853Z,14.60
2023-04-29T04:32:44.841Z,15.00
2023-04-29T04:35:13.169Z,13.50
2023-04-29T04:37:40.842Z,12.90
2023-04-29T04:40:09.342Z,13.10
2023-04-29T04:42:37.242Z,13.60
2023-04-29T04:45:05.508Z,15.30
2023-04-29T04:47:33.488Z,16.70
2023-04-29T04:50:01.326Z,13.10
2023-04-29T04:52:29.138Z,14.60
2023-04-29T04:54:57.224Z,14.50
2023-04-29T04:57:25.678Z,15.20
2023-04-29T04:59:53.847Z,16.50
2023-04-29T05:02:21.886Z,14.90
2023-04-29T05:04:49.832Z,16.10
2023-04-29T05:07:17.588Z,15.20
2023-04-29T05:09:48.026Z,16.80
2023-04-29T05:12:15.981Z,18.30
2023-04-29T05:14:43.788Z,14.40
2023-04-29T05:17:11.753Z,13.40
2023-04-29T05:19:39.860Z,15.60
2023-04-29T05:22:07.745Z,13.60
2023-04-29T05:24:35.664Z,16.10
2023-04-29T05:27:04.429Z,15.90
2023-04-29T05:29:32.689Z,13.50
2023-04-29T05:32:00.622Z,13.40
2023-04-29T05:34:28.354Z,14.00
2023-04-29T05:36:57.434Z,17.80
2023-04-29T05:39:26.809Z,13.40
2023-04-29T05:42:03.399Z,12.80
2023-04-29T05:44:31.271Z,16.40
2023-04-29T05:47:01.900Z,16.20
2023-04-29T05:49:29.827Z,16.80
2023-04-29T05:51:57.519Z,13.00
2023-04-29T05:54:25.263Z,21.10
2023-04-29T05:56:53.271Z,17.40
2023-04-29T05:59:21.222Z,16.70
2023-04-29T06:01:48.976Z,13.90
2023-04-29T06:04:17.034Z,15.20
2023-04-29T06:06:44.990Z,11.40
2023-04-29T06:09:26.365Z,14.50
2023-04-29T06:11:56.214Z,18.40
2023-04-29T06:14:24.227Z,15.00
2023-04-29T06:16:52.329Z,14.30
2023-04-29T06:19:20.324Z,17.70
2023-04-29T06:21:48.312Z,15.70
2023-04-29T06:24:16.178Z,13.90
2023-04-29T06:26:44.304Z,18.20
2023-04-29T06:29:12.460Z,15.50
2023-04-29T06:31:40.513Z,15.70
2023-04-29T06:34:08.490Z,14.20
2023-04-29T06:36:36.165Z,14.10
2023-04-29T06:39:04.035Z,13.50
2023-04-29T06:41:32.239Z,17.10
2023-04-29T06:44:00.040Z,18.70
2023-04-29T06:46:29.268Z,18.80
2023-04-29T06:48:57.219Z,13.10
2023-04-29T06:51:25.072Z,15.60
2023-04-29T06:53:52.842Z,10.00
2023-04-29T06:56:21.032Z,15.20
2023-04-29T06:58:49.078Z,15.40
2023-04-29T07:01:17.139Z,13.60
2023-04-29T07:03:45.296Z,17.00
2023-04-29T07:06:13.276Z,13.40
2023-04-29T07:08:41.157Z,12.00
2023-04-29T07:11:11.106Z,15.70
2023-04-29T07:13:38.804Z,18.60
2023-04-29T07:16:14.519Z,13.90
2023-04-29T07:18:42.263Z,14.60
2023-04-29T07:21:10.036Z,12.20
2023-04-29T07:23:37.796Z,15.40
2023-04-29T07:26:16.020Z,14.00
2023-04-29T07:28:44.545Z,14.30
2023-04-29T07:31:15.368Z,11.20
2023-04-29T07:33:44.485Z,16.50
2023-04-29T07:36:12.325Z,13.60
2023-04-29T07:38:40.292Z,14.90
2023-04-29T07:41:08.166Z,12.40
2023-04-29T07:43:36.444Z,20.10
2023-04-29T07:46:04.342Z,12.70
2023-04-29T07:48:36.573Z,18.40
2023-04-29T07:51:04.710Z,12.40
2023-04-29T07:53:32.840Z,13.10
2023-04-29T07:56:04.918Z,14.80
2023-04-29T07:58:32.741Z,11.30
2023-04-29T08:01:07.262Z,15.40
2023-04-29T08:03:35.942Z,11.30
2023-04-29T08:06:08.636Z,12.70
2023-04-29T08:08:36.697Z,11.20
2023-04-29T08:11:04.697Z,16.30
2023-04-29T08:13:32.464Z,13.30
2023-04-29T08:16:00.299Z,14.10
2023-04-29T08:18:28.128Z,10.60
2023-04-29T08:20:55.866Z,12.80
2023-04-29T08:23:23.626Z,14.90
2023-04-29T08:25:52.432Z,16.00
2023-04-29T08:28:20.782Z,9.50
2023-04-29T08:30:49.025Z,11.10
2023-04-29T08:33:16.761Z,13.90
2023-04-29T08:35:45.166Z,9.90
2023-04-29T08:38:13.232Z,10.60
2023-04-29T08:40:45.874Z,10.20
2023-04-29T08:43:14.036Z,12.10
2023-04-29T08:45:42.629Z,10.20
2023-04-29T08:48:10.865Z,12.50
2023-04-29T08:50:40.274Z,12.40
2023-04-29T08:53:11.711Z,8.10
2023-04-29T08:55:46.196Z,12.70
2023-04-29T08:58:14.789Z,13.10
2023-04-29T09:00:43.791Z,14.80
2023-04-29T09:03:23.194Z,11.10
2023-04-29T09:05:53.502Z,11.40
2023-04-29T09:08:24.433Z,12.10
2023-04-29T09:10:52.992Z,10.60
2023-04-29T09:13:25.448Z,13.10
2023-04-29T09:15:53.805Z,16.10
2023-04-29T09:18:40.425Z,11.80
2023-04-29T09:21:14.907Z,8.70
2023-04-29T09:23:43.282Z,12.20
2023-04-29T09:26:11.059Z,11.80
2023-04-29T09:28:41.214Z,12.20
2023-04-29T09:31:09.307Z,13.70
2023-04-29T09:33:52.162Z,11.40
2023-04-29T09:36:37.961Z,10.70
2023-04-29T09:39:11.400Z,13.90
2023-04-29T09:41:39.176Z,10.70
2023-04-29T09:44:07.492Z,8.90
2023-04-29T09:46:37.193Z,11.00
2023-04-29T09:49:25.693Z,9.70
2023-04-29T09:51:57.431Z,10.70
2023-04-29T09:54:26.377Z,10.20
2023-04-29T09:56:54.944Z,10.20
2023-04-29T09:59:23.733Z,9.80
2023-04-29T10:01:52.715Z,9.30
2023-04-29T10:04:21.379Z,10.60
2023-04-29T10:06:50.039Z,10.50
2023-04-29T10:09:18.928Z,12.30
2023-04-29T10:11:51.527Z,11.40
2023-04-29T10:14:39.815Z,12.10
2023-04-29T10:17:20.493Z,9.60
2023-04-29T10:19:54.539Z,11.20
2023-04-29T10:22:27.785Z,10.30
2023-04-29T10:24:56.498Z,12.90
2023-04-29T10:27:25.441Z,10.50
2023-04-29T10:29:53.760Z,11.20
2023-04-29T10:32:22.120Z,14.10
2023-04-29T10:34:51.980Z,11.60
2023-04-29T10:37:20.139Z,10.10
2023-04-29T10:39:47.913Z,10.40
2023-04-29T10:42:28.193Z,12.40
2023-04-29T10:45:14.747Z,10.00
2023-04-29T10:47:43.295Z,13.00
2023-04-29T10:50:11.224Z,9.80
2023-04-29T10:52:58.015Z,9.30
2023-04-29T10:55:25.955Z,9.00
2023-04-29T10:57:59.525Z,10.50
2023-04-29T11:00:28.297Z,15.20
2023-04-29T11:02:56.771Z,11.70
2023-04-29T11:05:37.042Z,13.90
2023-04-29T11:08:16.535Z,12.00
2023-04-29T11:10:44.689Z,13.20
2023-04-29T11:13:28.215Z,13.10
2023-04-29T11:16:05.583Z,11.80
2023-04-29T11:18:35.001Z,10.80
2023-04-29T11:21:06.065Z,14.30
2023-04-29T11:23:37.550Z,14.10
2023-04-29T11:26:05.378Z,14.80
2023-04-29T11:28:33.343Z,14.50
2023-04-29T11:31:01.250Z,15.00
2023-04-29T11:33:32.209Z,14.10
2023-04-29T11:36:00.520Z,13.60
2023-04-29T11:38:28.913Z,14.00
2023-04-29T11:40:57.399Z,14.80
2023-04-29T11:43:25.485Z,20.70
2023-04-29T11:45:53.802Z,13.90
2023-04-29T11:48:22.125Z,14.90
2023-04-29T11:50:51.312Z,15.90
2023-04-29T11:53:22.502Z,17.00
2023-04-29T11:55:50.275Z,15.10
2023-04-29T11:58:18.481Z,13.50
2023-04-29T12:00:47.544Z,13.90
2023-04-29T12:03:16.376Z,14.00
2023-04-29T12:05:59.707Z,16.80
2023-04-29T12:08:31.604Z,12.60
2023-04-29T12:11:00.013Z,14.10
2023-04-29T12:13:29.074Z,11.50
2023-04-29T12:15:58.533Z,11.50
2023-04-29T12:18:27.863Z,9.00
2023-04-29T12:20:56.165Z,10.40
2023-04-29T12:23:24.763Z,8.70
2023-04-29T12:25:53.896Z,11.70
2023-04-29T12:28:21.983Z,19.00
2023-04-29T12:30:51.403Z,11.40
2023-04-29T12:33:22.026Z,11.50
2023-04-29T12:35:51.078Z,8.40
2023-04-29T12:38:23.230Z,10.00
2023-04-29T12:40:51.180Z,9.50
2023-04-29T12:43:19.061Z,9.70
2023-04-29T12:45:47.040Z,9.10
2023-04-29T12:48:25.392Z,6.70
2023-04-29T12:51:00.016Z,10.90
2023-04-29T12:53:29.260Z,7.30
2023-04-29T12:55:57.692Z,7.80
2023-04-29T12:58:28.514Z,6.70
2023-04-29T13:00:56.530Z,6.00
2023-04-29T13:03:25.044Z,6.20
2023-04-29T13:05:54.787Z,7.10
2023-04-29T13:08:23.234Z,10.50
2023-04-29T13:10:51.649Z,7.30
2023-04-29T13:13:19.748Z,6.80
2023-04-29T13:15:47.657Z,6.80
2023-04-29T13:18:15.810Z,2.60
2023-04-29T13:20:43.586Z,1.50
2023-04-29T13:23:12.290Z,2.70
2023-04-29T13:25:40.213Z,4.30
2023-04-29T13:28:08.269Z,1.00
2023-04-29T13:30:36.418Z,4.10
2023-04-29T13:33:09.626Z,1.50
2023-04-29T13:35:41.954Z,1.60
2023-04-29T13:38:09.916Z,4.80
2023-04-29T13:40:40.673Z,3.80
2023-04-29T13:43:16.636Z,2.30
2023-04-29T13:45:53.141Z,2.30
2023-04-29T13:53:56.769Z,3.70
2023-04-29T13:56:41.167Z,2.40
2023-04-29T14:04:02.890Z,2.00
2023-04-29T14:06:32.703Z,1.50
2023-04-29T14:09:03.109Z,1.30
2023-04-29T14:11:36.719Z,2.50
2023-04-29T14:14:04.939Z,2.50
2023-04-29T14:16:33.189Z,3.70
2023-04-29T14:19:03.555Z,3.00
2023-04-29T14:21:33.576Z,5.50
2023-04-29T14:24:05.121Z,4.30
2023-04-29T14:26:33.112Z,4.40
2023-04-29T14:29:01.801Z,5.80
2023-04-29T14:31:38.326Z,4.20
2023-04-29T14:34:06.354Z,3.30
2023-04-29T14:36:34.167Z,3.70
2023-04-29T14:39:03.883Z,4.20
2023-04-29T14:41:31.805Z,5.90
2023-04-29T14:43:59.958Z,6.50
2023-04-29T14:46:29.106Z,4.80
2023-04-29T14:48:57.103Z,7.70
2023-04-29T14:51:25.626Z,5.10
2023-04-29T14:53:53.553Z,6.60
2023-04-29T14:56:21.517Z,9.10
2023-04-29T14:58:49.612Z,5.70
2023-04-29T15:01:17.605Z,5.90
2023-04-29T15:03:45.547Z,7.90
2023-04-29T15:06:13.511Z,6.30
2023-04-29T15:08:41.492Z,7.30
2023-04-29T15:11:09.406Z,6.20
2023-04-29T15:13:37.326Z,7.30
2023-04-29T15:16:06.596Z,6.50
2023-04-29T15:18:34.476Z,7.00
2023-04-29T15:21:02.480Z,6.60
2023-04-29T15:23:31.508Z,8.10
2023-04-29T15:25:59.448Z,8.00
2023-04-29T15:28:27.239Z,8.50
2023-04-29T15:30:55.402Z,8.30
2023-04-29T15:33:23.873Z,11.30
2023-04-29T15:35:51.743Z,9.30
2023-04-29T15:38:19.632Z,7.60
2023-04-29T15:40:47.551Z,7.20
2023-04-29T15:43:15.623Z,6.30
2023-04-29T15:45:43.406Z,5.10
2023-04-29T15:48:11.132Z,5.10
2023-04-29T15:50:38.867Z,7.40
2023-04-29T15:53:06.669Z,5.30
2023-04-29T15:55:35.506Z,5.70
2023-04-29T15:58:03.399Z,6.10
2023-04-29T16:00:31.282Z,4.80
2023-04-29T16:02:59.248Z,7.10
2023-04-29T16:05:27.096Z,9.20
2023-04-29T16:07:54.847Z,7.30
2023-04-29T16:10:22.770Z,7.40
2023-04-29T16:12:50.560Z,7.70
2023-04-29T16:15:18.693Z,8.70
2023-04-29T16:17:46.496Z,10.30
2023-04-29T16:20:14.503Z,11.50
2023-04-29T16:22:42.373Z,9.50
2023-04-29T16:25:11.453Z,10.50
2023-04-29T16:27:39.523Z,8.00
2023-04-29T16:30:07.810Z,8.30
2023-04-29T16:32:35.791Z,7.60
2023-04-29T16:35:03.685Z,10.90
2023-04-29T16:37:31.683Z,10.40
2023-04-29T16:39:59.959Z,8.20
2023-04-29T16:42:27.812Z,10.50
2023-04-29T16:44:55.656Z,12.10
2023-04-29T16:47:24.951Z,13.40
2023-04-29T16:49:53.091Z,13.20
2023-04-29T16:52:21.147Z,11.60
2023-04-29T16:54:48.853Z,12.20
2023-04-29T16:57:16.771Z,13.30
2023-04-29T16:59:44.556Z,12.70
2023-04-29T17:02:12.632Z,12.40
2023-04-29T17:04:41.051Z,14.00
2023-04-29T17:07:09.429Z,14.80
2023-04-29T17:09:37.291Z,15.80
2023-04-29T17:12:06.733Z,17.30
2023-04-29T17:14:34.378Z,16.90
2023-04-29T17:17:02.091Z,17.80
2023-04-29T17:19:29.966Z,19.90
2023-04-29T17:21:57.776Z,22.40
2023-04-29T17:24:28.514Z,29.50
2023-04-29T17:26:56.202Z,23.90
2023-04-29T17:29:23.975Z,24.80
2023-04-29T17:31:59.462Z,24.20
2023-04-29T17:34:29.920Z,24.10
2023-04-29T17:36:57.734Z,27.70
2023-04-29T17:39:25.695Z,26.50
2023-04-29T17:41:53.795Z,30.40
2023-04-29T17:44:23.370Z,31.40
2023-04-29T17:46:51.511Z,32.70
2023-04-29T17:49:19.209Z,31.00
2023-04-29T17:51:47.085Z,35.40
2023-04-29T17:54:14.836Z,39.60
2023-04-29T17:56:42.494Z,32.40
2023-04-29T17:59:11.937Z,34.00
2023-04-29T18:01:39.848Z,38.90
2023-04-29T18:04:07.838Z,39.20
2023-04-29T18:06:36.145Z,37.70
2023-04-29T18:09:04.707Z,38.50
2023-04-29T18:11:32.850Z,40.50
2023-04-29T18:14:01.156Z,36.90
2023-04-29T18:16:28.970Z,36.00
2023-04-29T18:18:57.072Z,39.50
2023-04-29T18:21:25.745Z,36.10
2023-04-29T18:23:54.130Z,32.80
2023-04-29T18:26:22.368Z,37.40
2023-04-29T18:28:50.252Z,34.60
2023-04-29T18:31:18.865Z,32.60
2023-04-29T18:33:46.793Z,36.70
2023-04-29T18:36:14.649Z,32.20
2023-04-29T18:38:43.168Z,27.90
2023-04-29T18:41:14.507Z,31.30
2023-04-29T18:43:42.396Z,27.80
2023-04-29T18:46:10.181Z,28.00
2023-04-29T18:48:40.125Z,24.60
2023-04-29T18:51:07.888Z,22.30
2023-04-29T18:53:35.744Z,20.50
2023-04-29T18:56:03.610Z,20.40
2023-04-29T18:58:31.482Z,22.80
2023-04-29T19:01:00.103Z,22.80
2023-04-29T19:03:28.110Z,20.30
2023-04-29T19:05:55.824Z,20.30
2023-04-29T19:08:24.375Z,21.40
2023-04-29T19:10:53.617Z,21.00
2023-04-29T19:13:21.516Z,20.40
2023-04-29T19:15:51.142Z,17.30
2023-04-29T19:18:20.270Z,18.10
2023-04-29T19:20:48.913Z,18.60
2023-04-29T19:23:16.817Z,15.90
2023-04-29T19:25:44.605Z,17.50
2023-04-29T19:28:12.363Z,15.50
2023-04-29T19:30:40.104Z,15.70
2023-04-29T19:33:08.596Z,15.80
2023-04-29T19:35:36.542Z,15.90
2023-04-29T19:38:04.356Z,11.00
2023-04-29T19:40:32.364Z,12.00
2023-04-29T19:43:00.129Z,13.80
2023-04-29T19:45:27.968Z,13.80
2023-04-29T19:47:55.776Z,13.10
2023-04-29T19:50:27.231Z,14.30
2023-04-29T19:52:55.279Z,18.20
2023-04-29T19:55:23.222Z,13.40
2023-04-29T19:57:53.356Z,14.70
2023-04-29T20:00:41.478Z,12.30
2023-04-29T20:03:09.359Z,17.10
2023-04-29T20:05:37.167Z,16.80
2023-04-29T20:08:05.102Z,19.50
2023-04-29T20:10:33.265Z,15.10
2023-04-29T20:13:01.133Z,13.40
2023-04-29T20:15:29.224Z,13.60
2023-04-29T20:17:57.351Z,16.20
2023-04-29T20:20:25.801Z,13.30
2023-04-29T20:22:58.049Z,15.70
2023-04-29T20:25:27.326Z,17.40
2023-04-29T20:27:55.160Z,12.40
2023-04-29T20:30:23.354Z,13.40
2023-04-29T20:32:51.219Z,15.00
2023-04-29T20:35:28.564Z,11.60
2023-04-29T20:37:57.054Z,12.90
2023-04-29T20:40:25.398Z,16.90
2023-04-29T20:42:53.189Z,12.90
2023-04-29T20:45:22.264Z,14.60
2023-04-29T20:47:50.268Z,14.60
2023-04-29T20:50:18.082Z,13.70
2023-04-29T20:52:49.179Z,12.50
2023-04-29T20:55:17.407Z,11.90
2023-04-29T20:57:45.456Z,10.40
2023-04-29T21:00:14.300Z,12.90
2023-04-29T21:02:42.185Z,13.30
2023-04-29T21:05:10.212Z,11.60
2023-04-29T21:07:38.254Z,9.50
2023-04-29T21:10:06.605Z,10.30
2023-04-29T21:12:34.419Z,10.80
2023-04-29T21:15:02.369Z,12.10
2023-04-29T21:17:30.342Z,11.60
2023-04-29T21:19:58.102Z,11.60
2023-04-29T21:22:25.935Z,10.60
2023-04-29T21:24:53.644Z,13.10
2023-04-29T21:27:21.805Z,10.50
2023-04-29T21:29:49.615Z,11.10
2023-04-29T21:32:21.667Z,9.30
2023-04-29T21:34:49.574Z,10.30
2023-04-29T21:37:17.642Z,12.80
2023-04-29T21:39:45.763Z,11.70
2023-04-29T21:42:13.972Z,14.10
2023-04-29T21:44:41.778Z,14.10
2023-04-29T21:47:09.934Z,11.80
2023-04-29T21:49:37.881Z,10.40
2023-04-29T21:52:05.682Z,11.60
2023-04-29T21:54:33.459Z,11.30
2023-04-29T21:57:01.721Z,13.80
2023-04-29T21:59:34.274Z,11.50
2023-04-29T22:02:04.139Z,10.90
2023-04-29T22:04:32.122Z,15.90
2023-04-29T22:07:02.947Z,15.00
2023-04-29T22:09:30.804Z,16.90
2023-04-29T22:11:58.563Z,14.70
2023-04-29T22:14:26.493Z,13.50
2023-04-29T22:16:54.356Z,14.50
2023-04-29T22:19:22.124Z,17.70
2023-04-29T22:21:50.113Z,15.60
2023-04-29T22:24:18.065Z,17.10
2023-04-29T22:26:46.530Z,19.20
2023-04-29T22:29:21.833Z,19.20
2023-04-29T22:31:49.829Z,19.60
2023-04-29T22:34:17.714Z,21.70
2023-04-29T22:36:45.726Z,15.50
2023-04-29T22:39:13.570Z,17.00
2023-04-29T22:41:41.639Z,18.00
2023-04-29T22:44:09.407Z,16.60
2023-04-29T22:46:37.167Z,18.70
2023-04-29T22:49:05.088Z,14.00
2023-04-29T22:51:33.033Z,14.90
2023-04-29T22:54:00.752Z,14.40
2023-04-29T22:56:29.015Z,13.50
2023-04-29T22:58:56.740Z,13.90
2023-04-29T23:01:24.898Z,14.50
2023-04-29T23:03:52.629Z,18.40
2023-04-29T23:06:21.436Z,12.20
2023-04-29T23:08:49.461Z,14.40
2023-04-29T23:11:17.138Z,13.00
2023-04-29T23:13:44.902Z,14.40
2023-04-29T23:16:12.824Z,13.70
2023-04-29T23:18:40.684Z,14.40
2023-04-29T23:21:08.463Z,16.50
2023-04-29T23:23:36.406Z,16.10
2023-04-29T23:26:04.412Z,14.00
2023-04-29T23:28:32.201Z,18.00
2023-04-29T23:31:00.276Z,18.50
2023-04-29T23:33:28.308Z,16.80
2023-04-29T23:35:56.218Z,19.70
2023-04-29T23:38:23.923Z,19.40
2023-04-29T23:40:51.620Z,18.50
2023-04-29T23:43:21.589Z,15.90
2023-04-29T23:45:49.492Z,15.10
2023-04-29T23:48:17.257Z,19.50
2023-04-29T23:50:52.207Z,15.50
2023-04-29T23:53:19.954Z,15.50
2023-04-29T23:55:48.744Z,14.40
2023-04-29T23:58:16.498Z,15.80
